sensor_id;sensor_type;location;lat;lon;timestamp;P1;durP1;ratioP1;P2;durP2;ratioP2
19621;SDS011;9958;33.196;-97.114;2023-01-28T00:02:11;1.02;;;1.02;;
19621;SDS011;9958;33.196;-97.114;2023-01-28T00:04:41;2.53;;;1.02;;
19621;SDS011;9958;33.196;-97.114;2023-01-28T00:07:10;0.70;;;0.70;;
19621;SDS011;9958;33.196;-97.114;2023-01-28T00:09:38;2.00;;;1.00;;
19621;SDS011;9958;33.196;-97.114;2023-01-28T00:12:06;3.47;;;0.95;;
19621;SDS011;9958;33.196;-97.114;2023-01-28T00:14:35;0.65;;;0.65;;
19621;SDS011;9958;33.196;-97.114;2023-01-28T00:17:03;1.30;;;0.82;;
19621;SDS011;9958;33.196;-97.114;2023-01-28T00:19:32;1.77;;;1.05;;
19621;SDS011;9958;33.196;-97.114;2023-01-28T00:22:02;0.88;;;0.85;;
19621;SDS011;9958;33.196;-97.114;2023-01-28T00:24:33;0.75;;;0.65;;
19621;SDS011;9958;33.196;-97.114;2023-01-28T00:27:01;0.65;;;0.60;;
19621;SDS011;9958;33.196;-97.114;2023-01-28T00:29:30;1.00;;;0.68;;
19621;SDS011;9958;33.196;-97.114;2023-01-28T00:31:58;1.30;;;0.70;;
19621;SDS011;9958;33.196;-97.114;2023-01-28T00:34:26;2.75;;;0.82;;
19621;SDS011;9958;33.196;-97.114;2023-01-28T00:36:55;1.95;;;1.20;;
19621;SDS011;9958;33.196;-97.114;2023-01-28T00:39:25;1.60;;;0.82;;
19621;SDS011;9958;33.196;-97.114;2023-01-28T00:41:53;1.52;;;0.77;;
19621;SDS011;9958;33.196;-97.114;2023-01-28T00:44:22;0.60;;;0.60;;
19621;SDS011;9958;33.196;-97.114;2023-01-28T00:46:50;1.05;;;0.85;;
19621;SDS011;9958;33.196;-97.114;2023-01-28T00:49:19;0.60;;;0.60;;
19621;SDS011;9958;33.196;-97.114;2023-01-28T00:51:47;0.88;;;0.70;;
19621;SDS011;9958;33.196;-97.114;2023-01-28T00:54:15;0.60;;;0.60;;
19621;SDS011;9958;33.196;-97.114;2023-01-28T00:56:45;1.80;;;1.13;;
19621;SDS011;9958;33.196;-97.114;2023-01-28T00:59:13;1.67;;;1.00;;
19621;SDS011;9958;33.196;-97.114;2023-01-28T01:01:42;1.70;;;0.95;;
19621;SDS011;9958;33.196;-97.114;2023-01-28T01:04:10;1.13;;;0.90;;
19621;SDS011;9958;33.196;-97.114;2023-01-28T01:06:39;1.05;;;0.90;;
19621;SDS011;9958;33.196;-97.114;2023-01-28T01:09:09;1.02;;;0.70;;
19621;SDS011;9958;33.196;-97.114;2023-01-28T01:11:38;1.35;;;1.10;;
19621;SDS011;9958;33.196;-97.114;2023-01-28T01:14:09;1.13;;;1.02;;
19621;SDS011;9958;33.196;-97.114;2023-01-28T01:16:38;1.80;;;1.10;;
19621;SDS011;9958;33.196;-97.114;2023-01-28T01:19:06;0.70;;;0.70;;
19621;SDS011;9958;33.196;-97.114;2023-01-28T01:21:35;1.25;;;0.93;;
19621;SDS011;9958;33.196;-97.114;2023-01-28T01:24:03;3.00;;;1.13;;
19621;SDS011;9958;33.196;-97.114;2023-01-28T01:26:32;0.88;;;0.80;;
19621;SDS011;9958;33.196;-97.114;2023-01-28T01:29:00;2.75;;;1.23;;
19621;SDS011;9958;33.196;-97.114;2023-01-28T01:31:30;1.23;;;1.00;;
19621;SDS011;9958;33.196;-97.114;2023-01-28T01:33:58;1.30;;;1.20;;
19621;SDS011;9958;33.196;-97.114;2023-01-28T01:36:26;1.27;;;1.17;;
19621;SDS011;9958;33.196;-97.114;2023-01-28T01:38:55;1.35;;;1.15;;
19621;SDS011;9958;33.196;-97.114;2023-01-28T01:41:25;2.20;;;1.35;;
19621;SDS011;9958;33.196;-97.114;2023-01-28T01:43:55;4.00;;;1.33;;
19621;SDS011;9958;33.196;-97.114;2023-01-28T01:46:26;2.33;;;1.60;;
19621;SDS011;9958;33.196;-97.114;2023-01-28T01:49:05;1.92;;;1.52;;
19621;SDS011;9958;33.196;-97.114;2023-01-28T01:51:40;3.40;;;1.92;;
19621;SDS011;9958;33.196;-97.114;2023-01-28T01:54:10;3.50;;;1.90;;
19621;SDS011;9958;33.196;-97.114;2023-01-28T01:56:40;4.13;;;1.98;;
19621;SDS011;9958;33.196;-97.114;2023-01-28T01:59:11;2.35;;;1.80;;
19621;SDS011;9958;33.196;-97.114;2023-01-28T02:01:43;2.80;;;2.20;;
19621;SDS011;9958;33.196;-97.114;2023-01-28T02:04:12;4.97;;;2.58;;
19621;SDS011;9958;33.196;-97.114;2023-01-28T02:06:46;3.53;;;2.55;;
19621;SDS011;9958;33.196;-97.114;2023-01-28T02:09:22;2.92;;;2.10;;
19621;SDS011;9958;33.196;-97.114;2023-01-28T02:11:51;2.78;;;1.73;;
19621;SDS011;9958;33.196;-97.114;2023-01-28T02:14:23;4.15;;;2.10;;
19621;SDS011;9958;33.196;-97.114;2023-01-28T02:16:56;3.65;;;2.08;;
19621;SDS011;9958;33.196;-97.114;2023-01-28T02:19:25;2.60;;;1.98;;
19621;SDS011;9958;33.196;-97.114;2023-01-28T02:22:04;3.95;;;2.00;;
19621;SDS011;9958;33.196;-97.114;2023-01-28T02:25:09;3.30;;;1.95;;
19621;SDS011;9958;33.196;-97.114;2023-01-28T02:27:59;2.42;;;1.90;;
19621;SDS011;9958;33.196;-97.114;2023-01-28T02:30:40;2.95;;;2.05;;
19621;SDS011;9958;33.196;-97.114;2023-01-28T02:33:16;2.80;;;1.67;;
19621;SDS011;9958;33.196;-97.114;2023-01-28T02:35:51;2.92;;;1.73;;
19621;SDS011;9958;33.196;-97.114;2023-01-28T02:38:22;2.28;;;1.67;;
19621;SDS011;9958;33.196;-97.114;2023-01-28T02:40:56;1.60;;;1.35;;
19621;SDS011;9958;33.196;-97.114;2023-01-28T02:43:35;1.52;;;1.40;;
19621;SDS011;9958;33.196;-97.114;2023-01-28T02:46:14;1.83;;;1.17;;
19621;SDS011;9958;33.196;-97.114;2023-01-28T02:49:04;2.60;;;1.50;;
19621;SDS011;9958;33.196;-97.114;2023-01-28T02:51:44;2.17;;;1.50;;
19621;SDS011;9958;33.196;-97.114;2023-01-28T02:54:25;2.38;;;1.30;;
19621;SDS011;9958;33.196;-97.114;2023-01-28T02:57:02;1.77;;;1.20;;
19621;SDS011;9958;33.196;-97.114;2023-01-28T02:59:47;1.63;;;1.25;;
19621;SDS011;9958;33.196;-97.114;2023-01-28T03:02:25;0.82;;;0.82;;
19621;SDS011;9958;33.196;-97.114;2023-01-28T03:05:01;1.70;;;1.13;;
19621;SDS011;9958;33.196;-97.114;2023-01-28T03:07:33;1.65;;;1.20;;
19621;SDS011;9958;33.196;-97.114;2023-01-28T03:10:04;2.88;;;1.33;;
19621;SDS011;9958;33.196;-97.114;2023-01-28T03:12:35;1.50;;;1.40;;
19621;SDS011;9958;33.196;-97.114;2023-01-28T03:15:26;2.22;;;1.30;;
19621;SDS011;9958;33.196;-97.114;2023-01-28T03:18:15;1.33;;;1.23;;
19621;SDS011;9958;33.196;-97.114;2023-01-28T03:21:05;1.02;;;1.02;;
19621;SDS011;9958;33.196;-97.114;2023-01-28T03:23:53;1.70;;;1.60;;
19621;SDS011;9958;33.196;-97.114;2023-01-28T03:26:42;3.38;;;1.40;;
19621;SDS011;9958;33.196;-97.114;2023-01-28T03:29:38;1.50;;;1.10;;
19621;SDS011;9958;33.196;-97.114;2023-01-28T03:32:28;3.35;;;1.60;;
19621;SDS011;9958;33.196;-97.114;2023-01-28T03:35:15;1.58;;;1.30;;
19621;SDS011;9958;33.196;-97.114;2023-01-28T03:38:03;2.33;;;1.20;;
19621;SDS011;9958;33.196;-97.114;2023-01-28T03:40:47;1.40;;;1.30;;
19621;SDS011;9958;33.196;-97.114;2023-01-28T03:43:17;1.45;;;1.35;;
19621;SDS011;9958;33.196;-97.114;2023-01-28T03:45:45;2.17;;;1.17;;
19621;SDS011;9958;33.196;-97.114;2023-01-28T03:48:17;1.30;;;1.00;;
19621;SDS011;9958;33.196;-97.114;2023-01-28T03:50:46;1.55;;;1.38;;
19621;SDS011;9958;33.196;-97.114;2023-01-28T03:53:16;1.35;;;1.17;;
19621;SDS011;9958;33.196;-97.114;2023-01-28T03:55:45;1.42;;;1.33;;
19621;SDS011;9958;33.196;-97.114;2023-01-28T03:58:14;1.17;;;1.00;;
19621;SDS011;9958;33.196;-97.114;2023-01-28T04:00:43;1.10;;;1.00;;
19621;SDS011;9958;33.196;-97.114;2023-01-28T04:03:13;1.63;;;1.08;;
19621;SDS011;9958;33.196;-97.114;2023-01-28T04:05:45;1.98;;;1.45;;
19621;SDS011;9958;33.196;-97.114;2023-01-28T04:08:23;4.30;;;1.65;;
19621;SDS011;9958;33.196;-97.114;2023-01-28T04:10:52;2.28;;;1.90;;
19621;SDS011;9958;33.196;-97.114;2023-01-28T04:13:20;3.58;;;2.15;;
19621;SDS011;9958;33.196;-97.114;2023-01-28T04:15:49;2.33;;;1.50;;
19621;SDS011;9958;33.196;-97.114;2023-01-28T04:18:18;0.90;;;0.90;;
19621;SDS011;9958;33.196;-97.114;2023-01-28T04:20:53;1.25;;;1.15;;
19621;SDS011;9958;33.196;-97.114;2023-01-28T04:23:21;1.50;;;1.08;;
19621;SDS011;9958;33.196;-97.114;2023-01-28T04:25:50;1.55;;;1.05;;
19621;SDS011;9958;33.196;-97.114;2023-01-28T04:28:18;1.60;;;1.05;;
19621;SDS011;9958;33.196;-97.114;2023-01-28T04:30:46;1.10;;;1.10;;
19621;SDS011;9958;33.196;-97.114;2023-01-28T04:33:15;1.15;;;1.05;;
19621;SDS011;9958;33.196;-97.114;2023-01-28T04:35:43;1.02;;;1.00;;
19621;SDS011;9958;33.196;-97.114;2023-01-28T04:38:13;0.77;;;0.77;;
19621;SDS011;9958;33.196;-97.114;2023-01-28T04:40:41;1.77;;;0.88;;
19621;SDS011;9958;33.196;-97.114;2023-01-28T04:43:10;1.02;;;0.93;;
19621;SDS011;9958;33.196;-97.114;2023-01-28T04:45:38;1.33;;;0.88;;
19621;SDS011;9958;33.196;-97.114;2023-01-28T04:48:06;0.95;;;0.88;;
19621;SDS011;9958;33.196;-97.114;2023-01-28T04:50:35;0.95;;;0.95;;
19621;SDS011;9958;33.196;-97.114;2023-01-28T04:53:03;1.13;;;0.82;;
19621;SDS011;9958;33.196;-97.114;2023-01-28T04:55:33;3.63;;;1.27;;
19621;SDS011;9958;33.196;-97.114;2023-01-28T04:58:02;1.00;;;0.75;;
19621;SDS011;9958;33.196;-97.114;2023-01-28T05:00:30;2.20;;;1.45;;
19621;SDS011;9958;33.196;-97.114;2023-01-28T05:02:58;3.63;;;1.33;;
19621;SDS011;9958;33.196;-97.114;2023-01-28T05:05:27;1.83;;;1.00;;
19621;SDS011;9958;33.196;-97.114;2023-01-28T05:07:55;2.05;;;1.20;;
19621;SDS011;9958;33.196;-97.114;2023-01-28T05:10:24;2.58;;;1.45;;
19621;SDS011;9958;33.196;-97.114;2023-01-28T05:12:55;2.25;;;1.00;;
19621;SDS011;9958;33.196;-97.114;2023-01-28T05:15:23;2.30;;;1.08;;
19621;SDS011;9958;33.196;-97.114;2023-01-28T05:17:53;1.80;;;1.23;;
19621;SDS011;9958;33.196;-97.114;2023-01-28T05:20:22;1.25;;;1.05;;
19621;SDS011;9958;33.196;-97.114;2023-01-28T05:22:51;1.30;;;1.20;;
19621;SDS011;9958;33.196;-97.114;2023-01-28T05:25:19;1.60;;;1.30;;
19621;SDS011;9958;33.196;-97.114;2023-01-28T05:27:50;1.05;;;1.05;;
19621;SDS011;9958;33.196;-97.114;2023-01-28T05:30:21;1.98;;;1.20;;
19621;SDS011;9958;33.196;-97.114;2023-01-28T05:32:53;1.35;;;1.25;;
19621;SDS011;9958;33.196;-97.114;2023-01-28T05:35:22;2.00;;;1.25;;
19621;SDS011;9958;33.196;-97.114;2023-01-28T05:37:51;1.00;;;1.00;;
19621;SDS011;9958;33.196;-97.114;2023-01-28T05:40:19;1.52;;;1.30;;
19621;SDS011;9958;33.196;-97.114;2023-01-28T05:42:47;1.23;;;1.20;;
19621;SDS011;9958;33.196;-97.114;2023-01-28T05:45:16;1.80;;;0.88;;
19621;SDS011;9958;33.196;-97.114;2023-01-28T05:47:46;1.80;;;1.40;;
19621;SDS011;9958;33.196;-97.114;2023-01-28T05:50:14;1.20;;;1.10;;
19621;SDS011;9958;33.196;-97.114;2023-01-28T05:52:43;1.45;;;1.35;;
19621;SDS011;9958;33.196;-97.114;2023-01-28T05:55:11;1.25;;;1.15;;
19621;SDS011;9958;33.196;-97.114;2023-01-28T05:57:40;1.50;;;1.38;;
19621;SDS011;9958;33.196;-97.114;2023-01-28T06:00:09;1.30;;;1.17;;
19621;SDS011;9958;33.196;-97.114;2023-01-28T06:02:39;1.23;;;1.00;;
19621;SDS011;9958;33.196;-97.114;2023-01-28T06:05:09;1.15;;;0.90;;
19621;SDS011;9958;33.196;-97.114;2023-01-28T06:07:38;1.38;;;1.27;;
19621;SDS011;9958;33.196;-97.114;2023-01-28T06:10:06;2.90;;;1.27;;
19621;SDS011;9958;33.196;-97.114;2023-01-28T06:12:35;1.40;;;1.30;;
19621;SDS011;9958;33.196;-97.114;2023-01-28T06:15:04;1.05;;;1.05;;
19621;SDS011;9958;33.196;-97.114;2023-01-28T06:17:33;1.95;;;1.20;;
19621;SDS011;9958;33.196;-97.114;2023-01-28T06:20:02;1.67;;;1.40;;
19621;SDS011;9958;33.196;-97.114;2023-01-28T06:22:32;1.50;;;1.40;;
19621;SDS011;9958;33.196;-97.114;2023-01-28T06:25:00;1.73;;;1.40;;
19621;SDS011;9958;33.196;-97.114;2023-01-28T06:27:29;1.65;;;1.55;;
19621;SDS011;9958;33.196;-97.114;2023-01-28T06:29:57;1.58;;;1.48;;
19621;SDS011;9958;33.196;-97.114;2023-01-28T06:32:26;1.42;;;1.27;;
19621;SDS011;9958;33.196;-97.114;2023-01-28T06:34:54;1.10;;;1.00;;
19621;SDS011;9958;33.196;-97.114;2023-01-28T06:37:23;1.52;;;1.42;;
19621;SDS011;9958;33.196;-97.114;2023-01-28T06:39:53;1.38;;;1.27;;
19621;SDS011;9958;33.196;-97.114;2023-01-28T06:42:22;2.15;;;1.50;;
19621;SDS011;9958;33.196;-97.114;2023-01-28T06:44:50;1.33;;;1.20;;
19621;SDS011;9958;33.196;-97.114;2023-01-28T06:47:18;1.92;;;1.45;;
19621;SDS011;9958;33.196;-97.114;2023-01-28T06:49:47;1.98;;;1.33;;
19621;SDS011;9958;33.196;-97.114;2023-01-28T06:52:15;1.48;;;1.38;;
19621;SDS011;9958;33.196;-97.114;2023-01-28T06:54:43;3.60;;;1.30;;
19621;SDS011;9958;33.196;-97.114;2023-01-28T06:57:13;2.15;;;1.52;;
19621;SDS011;9958;33.196;-97.114;2023-01-28T06:59:42;1.85;;;1.33;;
19621;SDS011;9958;33.196;-97.114;2023-01-28T07:02:10;1.30;;;1.20;;
19621;SDS011;9958;33.196;-97.114;2023-01-28T07:04:39;2.13;;;1.30;;
19621;SDS011;9958;33.196;-97.114;2023-01-28T07:07:07;1.40;;;1.30;;
19621;SDS011;9958;33.196;-97.114;2023-01-28T07:09:35;1.65;;;1.17;;
19621;SDS011;9958;33.196;-97.114;2023-01-28T07:12:04;3.03;;;1.38;;
19621;SDS011;9958;33.196;-97.114;2023-01-28T07:14:34;2.53;;;1.30;;
19621;SDS011;9958;33.196;-97.114;2023-01-28T07:17:02;2.05;;;1.70;;
19621;SDS011;9958;33.196;-97.114;2023-01-28T07:25:42;1.48;;;1.38;;
19621;SDS011;9958;33.196;-97.114;2023-01-28T07:28:11;1.50;;;1.40;;
19621;SDS011;9958;33.196;-97.114;2023-01-28T07:30:47;2.13;;;1.63;;
19621;SDS011;9958;33.196;-97.114;2023-01-28T07:33:16;2.42;;;1.55;;
19621;SDS011;9958;33.196;-97.114;2023-01-28T07:35:45;2.83;;;1.33;;
19621;SDS011;9958;33.196;-97.114;2023-01-28T07:38:14;1.83;;;1.50;;
19621;SDS011;9958;33.196;-97.114;2023-01-28T07:40:42;2.15;;;1.40;;
19621;SDS011;9958;33.196;-97.114;2023-01-28T07:43:11;1.83;;;1.27;;
19621;SDS011;9958;33.196;-97.114;2023-01-28T07:45:40;1.45;;;1.35;;
19621;SDS011;9958;33.196;-97.114;2023-01-28T07:48:10;1.67;;;1.42;;
19621;SDS011;9958;33.196;-97.114;2023-01-28T07:50:39;3.55;;;1.50;;
19621;SDS011;9958;33.196;-97.114;2023-01-28T07:53:09;1.75;;;1.65;;
19621;SDS011;9958;33.196;-97.114;2023-01-28T07:55:38;1.67;;;1.58;;
19621;SDS011;9958;33.196;-97.114;2023-01-28T07:58:06;2.75;;;1.67;;
19621;SDS011;9958;33.196;-97.114;2023-01-28T08:00:37;1.67;;;1.58;;
19621;SDS011;9958;33.196;-97.114;2023-01-28T08:03:08;1.70;;;1.60;;
19621;SDS011;9958;33.196;-97.114;2023-01-28T08:05:40;2.13;;;1.98;;
19621;SDS011;9958;33.196;-97.114;2023-01-28T08:08:11;5.88;;;1.83;;
19621;SDS011;9958;33.196;-97.114;2023-01-28T08:10:40;3.05;;;1.48;;
19621;SDS011;9958;33.196;-97.114;2023-01-28T08:13:08;1.50;;;1.40;;
19621;SDS011;9958;33.196;-97.114;2023-01-28T08:15:38;1.70;;;1.60;;
19621;SDS011;9958;33.196;-97.114;2023-01-28T08:18:07;1.80;;;1.70;;
19621;SDS011;9958;33.196;-97.114;2023-01-28T08:20:39;1.52;;;1.42;;
19621;SDS011;9958;33.196;-97.114;2023-01-28T08:23:10;2.75;;;1.75;;
19621;SDS011;9958;33.196;-97.114;2023-01-28T08:25:39;1.98;;;1.60;;
19621;SDS011;9958;33.196;-97.114;2023-01-28T08:28:08;2.90;;;1.75;;
19621;SDS011;9958;33.196;-97.114;2023-01-28T08:30:37;3.08;;;2.10;;
19621;SDS011;9958;33.196;-97.114;2023-01-28T08:33:07;2.92;;;1.60;;
19621;SDS011;9958;33.196;-97.114;2023-01-28T08:35:37;3.80;;;1.83;;
19621;SDS011;9958;33.196;-97.114;2023-01-28T08:38:07;2.42;;;2.10;;
19621;SDS011;9958;33.196;-97.114;2023-01-28T08:40:37;1.65;;;1.52;;
19621;SDS011;9958;33.196;-97.114;2023-01-28T08:43:06;2.80;;;1.75;;
19621;SDS011;9958;33.196;-97.114;2023-01-28T08:45:34;2.00;;;1.80;;
19621;SDS011;9958;33.196;-97.114;2023-01-28T08:48:03;2.55;;;1.80;;
19621;SDS011;9958;33.196;-97.114;2023-01-28T08:50:33;1.80;;;1.67;;
19621;SDS011;9958;33.196;-97.114;2023-01-28T08:53:05;3.03;;;2.00;;
19621;SDS011;9958;33.196;-97.114;2023-01-28T08:55:34;2.67;;;1.83;;
19621;SDS011;9958;33.196;-97.114;2023-01-28T08:58:03;2.28;;;1.67;;
19621;SDS011;9958;33.196;-97.114;2023-01-28T09:00:33;1.98;;;1.75;;
19621;SDS011;9958;33.196;-97.114;2023-01-28T09:03:02;3.30;;;1.92;;
19621;SDS011;9958;33.196;-97.114;2023-01-28T09:05:31;1.95;;;1.70;;
19621;SDS011;9958;33.196;-97.114;2023-01-28T09:08:00;2.22;;;1.60;;
19621;SDS011;9958;33.196;-97.114;2023-01-28T09:10:31;3.65;;;2.03;;
19621;SDS011;9958;33.196;-97.114;2023-01-28T09:13:04;1.90;;;1.70;;
19621;SDS011;9958;33.196;-97.114;2023-01-28T09:15:33;1.83;;;1.60;;
19621;SDS011;9958;33.196;-97.114;2023-01-28T09:18:02;2.15;;;1.85;;
19621;SDS011;9958;33.196;-97.114;2023-01-28T09:20:30;1.65;;;1.55;;
19621;SDS011;9958;33.196;-97.114;2023-01-28T09:22:59;2.22;;;1.85;;
19621;SDS011;9958;33.196;-97.114;2023-01-28T09:25:28;3.30;;;1.95;;
19621;SDS011;9958;33.196;-97.114;2023-01-28T09:27:58;2.83;;;2.13;;
19621;SDS011;9958;33.196;-97.114;2023-01-28T09:30:26;1.92;;;1.80;;
19621;SDS011;9958;33.196;-97.114;2023-01-28T09:32:55;2.53;;;1.70;;
19621;SDS011;9958;33.196;-97.114;2023-01-28T09:35:24;2.97;;;1.95;;
19621;SDS011;9958;33.196;-97.114;2023-01-28T09:37:55;2.60;;;1.75;;
19621;SDS011;9958;33.196;-97.114;2023-01-28T09:40:27;4.30;;;1.63;;
19621;SDS011;9958;33.196;-97.114;2023-01-28T09:43:07;2.35;;;2.00;;
19621;SDS011;9958;33.196;-97.114;2023-01-28T09:46:02;2.22;;;2.03;;
19621;SDS011;9958;33.196;-97.114;2023-01-28T09:48:34;1.98;;;1.67;;
19621;SDS011;9958;33.196;-97.114;2023-01-28T09:51:06;2.50;;;1.95;;
19621;SDS011;9958;33.196;-97.114;2023-01-28T09:53:38;2.25;;;2.00;;
19621;SDS011;9958;33.196;-97.114;2023-01-28T09:56:10;2.35;;;1.70;;
19621;SDS011;9958;33.196;-97.114;2023-01-28T09:58:43;4.50;;;1.98;;
19621;SDS011;9958;33.196;-97.114;2023-01-28T10:01:19;2.78;;;2.53;;
19621;SDS011;9958;33.196;-97.114;2023-01-28T10:04:01;1.98;;;1.80;;
19621;SDS011;9958;33.196;-97.114;2023-01-28T10:06:40;2.97;;;1.90;;
19621;SDS011;9958;33.196;-97.114;2023-01-28T10:09:30;2.25;;;2.05;;
19621;SDS011;9958;33.196;-97.114;2023-01-28T10:12:15;1.85;;;1.65;;
19621;SDS011;9958;33.196;-97.114;2023-01-28T10:15:03;2.90;;;2.03;;
19621;SDS011;9958;33.196;-97.114;2023-01-28T10:17:48;1.65;;;1.55;;
19621;SDS011;9958;33.196;-97.114;2023-01-28T10:20:19;1.67;;;1.58;;
19621;SDS011;9958;33.196;-97.114;2023-01-28T10:22:54;3.58;;;2.00;;
19621;SDS011;9958;33.196;-97.114;2023-01-28T10:25:27;2.50;;;2.10;;
19621;SDS011;9958;33.196;-97.114;2023-01-28T10:27:57;3.15;;;1.70;;
19621;SDS011;9958;33.196;-97.114;2023-01-28T10:30:31;2.25;;;1.80;;
19621;SDS011;9958;33.196;-97.114;2023-01-28T10:33:02;2.10;;;1.90;;
19621;SDS011;9958;33.196;-97.114;2023-01-28T10:35:32;2.22;;;1.80;;
19621;SDS011;9958;33.196;-97.114;2023-01-28T10:38:06;5.03;;;2.05;;
19621;SDS011;9958;33.196;-97.114;2023-01-28T10:40:36;5.40;;;2.40;;
19621;SDS011;9958;33.196;-97.114;2023-01-28T10:43:06;2.38;;;2.17;;
19621;SDS011;9958;33.196;-97.114;2023-01-28T10:45:37;3.20;;;2.40;;
19621;SDS011;9958;33.196;-97.114;2023-01-28T10:48:12;2.90;;;2.22;;
19621;SDS011;9958;33.196;-97.114;2023-01-28T10:50:49;2.40;;;1.90;;
19621;SDS011;9958;33.196;-97.114;2023-01-28T10:53:18;2.13;;;1.88;;
19621;SDS011;9958;33.196;-97.114;2023-01-28T10:55:51;3.30;;;2.13;;
19621;SDS011;9958;33.196;-97.114;2023-01-28T10:58:23;2.83;;;1.90;;
19621;SDS011;9958;33.196;-97.114;2023-01-28T11:00:55;2.72;;;1.65;;
19621;SDS011;9958;33.196;-97.114;2023-01-28T11:03:25;2.88;;;2.35;;
19621;SDS011;9958;33.196;-97.114;2023-01-28T11:05:55;1.95;;;1.73;;
19621;SDS011;9958;33.196;-97.114;2023-01-28T11:08:25;2.72;;;1.83;;
19621;SDS011;9958;33.196;-97.114;2023-01-28T11:10:54;2.15;;;1.80;;
19621;SDS011;9958;33.196;-97.114;2023-01-28T11:13:24;2.08;;;1.90;;
19621;SDS011;9958;33.196;-97.114;2023-01-28T11:15:57;2.28;;;2.00;;
19621;SDS011;9958;33.196;-97.114;2023-01-28T11:18:29;2.50;;;2.30;;
19621;SDS011;9958;33.196;-97.114;2023-01-28T11:20:59;2.40;;;2.10;;
19621;SDS011;9958;33.196;-97.114;2023-01-28T11:23:30;3.05;;;1.92;;
19621;SDS011;9958;33.196;-97.114;2023-01-28T11:26:02;2.70;;;2.20;;
19621;SDS011;9958;33.196;-97.114;2023-01-28T11:28:32;2.20;;;2.00;;
19621;SDS011;9958;33.196;-97.114;2023-01-28T11:31:07;2.30;;;2.10;;
19621;SDS011;9958;33.196;-97.114;2023-01-28T11:33:42;3.13;;;2.15;;
19621;SDS011;9958;33.196;-97.114;2023-01-28T11:36:14;2.92;;;2.17;;
19621;SDS011;9958;33.196;-97.114;2023-01-28T11:38:48;3.22;;;2.08;;
19621;SDS011;9958;33.196;-97.114;2023-01-28T11:41:22;2.65;;;2.22;;
19621;SDS011;9958;33.196;-97.114;2023-01-28T11:43:53;2.33;;;2.10;;
19621;SDS011;9958;33.196;-97.114;2023-01-28T11:46:39;3.03;;;2.30;;
19621;SDS011;9958;33.196;-97.114;2023-01-28T11:49:17;3.40;;;2.20;;
19621;SDS011;9958;33.196;-97.114;2023-01-28T11:51:55;2.10;;;1.90;;
19621;SDS011;9958;33.196;-97.114;2023-01-28T11:54:33;3.30;;;2.20;;
19621;SDS011;9958;33.196;-97.114;2023-01-28T11:57:13;2.65;;;1.90;;
19621;SDS011;9958;33.196;-97.114;2023-01-28T11:59:55;2.00;;;1.80;;
19621;SDS011;9958;33.196;-97.114;2023-01-28T12:02:44;2.10;;;1.90;;
19621;SDS011;9958;33.196;-97.114;2023-01-28T12:05:18;2.15;;;1.92;;
19621;SDS011;9958;33.196;-97.114;2023-01-28T12:08:09;3.03;;;2.30;;
19621;SDS011;9958;33.196;-97.114;2023-01-28T12:10:45;2.28;;;2.08;;
19621;SDS011;9958;33.196;-97.114;2023-01-28T12:13:25;2.67;;;2.35;;
19621;SDS011;9958;33.196;-97.114;2023-01-28T12:16:09;2.17;;;1.98;;
19621;SDS011;9958;33.196;-97.114;2023-01-28T12:18:53;3.97;;;2.30;;
19621;SDS011;9958;33.196;-97.114;2023-01-28T12:22:00;2.70;;;2.38;;
19621;SDS011;9958;33.196;-97.114;2023-01-28T12:24:42;2.42;;;2.13;;
19621;SDS011;9958;33.196;-97.114;2023-01-28T12:27:24;2.30;;;2.10;;
19621;SDS011;9958;33.196;-97.114;2023-01-28T12:30:03;2.40;;;2.20;;
19621;SDS011;9958;33.196;-97.114;2023-01-28T12:32:44;2.45;;;2.25;;
19621;SDS011;9958;33.196;-97.114;2023-01-28T12:35:32;2.08;;;1.80;;
19621;SDS011;9958;33.196;-97.114;2023-01-28T12:38:14;3.67;;;2.30;;
19621;SDS011;9958;33.196;-97.114;2023-01-28T12:40:58;2.47;;;2.28;;
19621;SDS011;9958;33.196;-97.114;2023-01-28T12:43:40;2.05;;;1.88;;
19621;SDS011;9958;33.196;-97.114;2023-01-28T12:46:17;1.83;;;1.73;;
19621;SDS011;9958;33.196;-97.114;2023-01-28T12:48:57;4.65;;;2.05;;
19621;SDS011;9958;33.196;-97.114;2023-01-28T12:51:31;1.95;;;1.73;;
19621;SDS011;9958;33.196;-97.114;2023-01-28T12:54:10;3.40;;;2.20;;
19621;SDS011;9958;33.196;-97.114;2023-01-28T12:56:43;2.67;;;2.38;;
19621;SDS011;9958;33.196;-97.114;2023-01-28T12:59:15;2.65;;;1.88;;
19621;SDS011;9958;33.196;-97.114;2023-01-28T13:01:49;4.82;;;2.25;;
19621;SDS011;9958;33.196;-97.114;2023-01-28T13:04:24;3.08;;;2.20;;
19621;SDS011;9958;33.196;-97.114;2023-01-28T13:07:03;2.45;;;1.90;;
19621;SDS011;9958;33.196;-97.114;2023-01-28T13:09:36;2.13;;;1.92;;
19621;SDS011;9958;33.196;-97.114;2023-01-28T13:12:08;2.42;;;2.05;;
19621;SDS011;9958;33.196;-97.114;2023-01-28T13:14:38;3.67;;;2.40;;
19621;SDS011;9958;33.196;-97.114;2023-01-28T13:17:08;4.63;;;2.25;;
19621;SDS011;9958;33.196;-97.114;2023-01-28T13:19:37;2.60;;;2.15;;
19621;SDS011;9958;33.196;-97.114;2023-01-28T13:22:21;2.72;;;2.17;;
19621;SDS011;9958;33.196;-97.114;2023-01-28T13:24:54;3.40;;;2.22;;
19621;SDS011;9958;33.196;-97.114;2023-01-28T13:27:25;2.72;;;2.33;;
19621;SDS011;9958;33.196;-97.114;2023-01-28T13:30:04;3.75;;;2.50;;
19621;SDS011;9958;33.196;-97.114;2023-01-28T13:32:54;2.38;;;2.05;;
19621;SDS011;9958;33.196;-97.114;2023-01-28T13:35:27;3.25;;;2.50;;
19621;SDS011;9958;33.196;-97.114;2023-01-28T13:38:00;2.45;;;2.25;;
19621;SDS011;9958;33.196;-97.114;2023-01-28T13:40:35;7.82;;;2.70;;
19621;SDS011;9958;33.196;-97.114;2023-01-28T13:43:05;3.28;;;2.42;;
19621;SDS011;9958;33.196;-97.114;2023-01-28T13:45:53;3.67;;;2.30;;
19621;SDS011;9958;33.196;-97.114;2023-01-28T13:48:25;3.47;;;2.33;;
19621;SDS011;9958;33.196;-97.114;2023-01-28T13:50:58;4.00;;;2.78;;
19621;SDS011;9958;33.196;-97.114;2023-01-28T13:53:35;3.42;;;2.50;;
19621;SDS011;9958;33.196;-97.114;2023-01-28T13:56:16;2.92;;;2.50;;
19621;SDS011;9958;33.196;-97.114;2023-01-28T14:05:20;6.20;;;2.75;;
19621;SDS011;9958;33.196;-97.114;2023-01-28T14:08:08;3.92;;;3.10;;
19621;SDS011;9958;33.196;-97.114;2023-01-28T14:11:29;3.63;;;2.80;;
19621;SDS011;9958;33.196;-97.114;2023-01-28T14:14:30;3.75;;;3.00;;
19621;SDS011;9958;33.196;-97.114;2023-01-28T14:17:10;3.22;;;2.55;;
19621;SDS011;9958;33.196;-97.114;2023-01-28T14:19:48;4.00;;;3.08;;
19621;SDS011;9958;33.196;-97.114;2023-01-28T14:22:20;5.55;;;2.83;;
19621;SDS011;9958;33.196;-97.114;2023-01-28T14:24:50;4.80;;;3.05;;
19621;SDS011;9958;33.196;-97.114;2023-01-28T14:27:20;2.90;;;2.60;;
19621;SDS011;9958;33.196;-97.114;2023-01-28T14:29:57;3.83;;;3.53;;
19621;SDS011;9958;33.196;-97.114;2023-01-28T14:32:34;6.07;;;3.35;;
19621;SDS011;9958;33.196;-97.114;2023-01-28T14:35:04;4.03;;;3.45;;
19621;SDS011;9958;33.196;-97.114;2023-01-28T14:37:35;4.28;;;3.03;;
19621;SDS011;9958;33.196;-97.114;2023-01-28T14:40:06;4.85;;;3.78;;
19621;SDS011;9958;33.196;-97.114;2023-01-28T14:42:39;4.57;;;2.80;;
19621;SDS011;9958;33.196;-97.114;2023-01-28T14:45:13;5.65;;;3.60;;
19621;SDS011;9958;33.196;-97.114;2023-01-28T14:48:09;4.25;;;3.58;;
19621;SDS011;9958;33.196;-97.114;2023-01-28T14:50:52;5.47;;;3.95;;
19621;SDS011;9958;33.196;-97.114;2023-01-28T14:53:38;4.93;;;3.75;;
19621;SDS011;9958;33.196;-97.114;2023-01-28T14:56:27;6.47;;;3.63;;
19621;SDS011;9958;33.196;-97.114;2023-01-28T14:59:03;5.63;;;3.63;;
19621;SDS011;9958;33.196;-97.114;2023-01-28T15:01:42;4.95;;;3.30;;
19621;SDS011;9958;33.196;-97.114;2023-01-28T15:04:24;4.45;;;3.35;;
19621;SDS011;9958;33.196;-97.114;2023-01-28T15:06:53;4.68;;;3.42;;
19621;SDS011;9958;33.196;-97.114;2023-01-28T15:09:22;5.75;;;3.38;;
19621;SDS011;9958;33.196;-97.114;2023-01-28T15:11:52;3.78;;;3.38;;
19621;SDS011;9958;33.196;-97.114;2023-01-28T15:14:25;5.40;;;3.90;;
19621;SDS011;9958;33.196;-97.114;2023-01-28T15:16:56;3.55;;;2.97;;
19621;SDS011;9958;33.196;-97.114;2023-01-28T15:19:26;5.45;;;3.65;;
19621;SDS011;9958;33.196;-97.114;2023-01-28T15:21:56;5.57;;;3.63;;